sensor_id;sensor_type;location;lat;lon;timestamp;P1;durP1;ratioP1;P2;durP2;ratioP2
68923;SDS011;55961;52.156;20.942;2023-05-17T00:01:43;16.45;;;11.40;;
68923;SDS011;55961;52.156;20.942;2023-05-17T00:04:09;14.93;;;11.00;;
68923;SDS011;55961;52.156;20.942;2023-05-17T00:06:35;14.00;;;10.77;;
68923;SDS011;55961;52.156;20.942;2023-05-17T00:09:01;17.23;;;10.83;;
68923;SDS011;55961;52.156;20.942;2023-05-17T00:11:27;16.13;;;11.27;;
68923;SDS011;55961;52.156;20.942;2023-05-17T00:13:53;17.05;;;12.18;;
68923;SDS011;55961;52.156;20.942;2023-05-17T00:16:19;16.27;;;11.20;;
68923;SDS011;55961;52.156;20.942;2023-05-17T00:18:45;18.85;;;12.30;;
68923;SDS011;55961;52.156;20.942;2023-05-17T00:21:11;17.60;;;12.70;;
68923;SDS011;55961;52.156;20.942;2023-05-17T00:23:37;17.38;;;11.52;;
68923;SDS011;55961;52.156;20.942;2023-05-17T00:26:03;15.13;;;11.20;;
68923;SDS011;55961;52.156;20.942;2023-05-17T00:28:29;16.52;;;11.45;;
68923;SDS011;55961;52.156;20.942;2023-05-17T00:30:54;18.48;;;11.50;;
68923;SDS011;55961;52.156;20.942;2023-05-17T00:33:20;16.00;;;10.80;;
68923;SDS011;55961;52.156;20.942;2023-05-17T00:35:46;13.88;;;10.75;;
68923;SDS011;55961;52.156;20.942;2023-05-17T00:38:12;17.83;;;10.85;;
68923;SDS011;55961;52.156;20.942;2023-05-17T00:40:38;16.57;;;11.20;;
68923;SDS011;55961;52.156;20.942;2023-05-17T00:43:04;16.20;;;10.85;;
68923;SDS011;55961;52.156;20.942;2023-05-17T00:45:30;14.68;;;10.82;;
68923;SDS011;55961;52.156;20.942;2023-05-17T00:47:56;18.15;;;10.93;;
68923;SDS011;55961;52.156;20.942;2023-05-17T00:50:22;14.63;;;10.80;;
68923;SDS011;55961;52.156;20.942;2023-05-17T00:52:48;15.70;;;10.65;;
68923;SDS011;55961;52.156;20.942;2023-05-17T00:55:14;16.25;;;11.18;;
68923;SDS011;55961;52.156;20.942;2023-05-17T00:57:40;13.80;;;10.40;;
68923;SDS011;55961;52.156;20.942;2023-05-17T01:00:06;15.60;;;10.93;;
68923;SDS011;55961;52.156;20.942;2023-05-17T01:02:33;16.60;;;11.00;;
68923;SDS011;55961;52.156;20.942;2023-05-17T01:04:58;16.98;;;11.13;;
68923;SDS011;55961;52.156;20.942;2023-05-17T01:07:25;16.80;;;12.47;;
68923;SDS011;55961;52.156;20.942;2023-05-17T01:09:51;16.83;;;12.27;;
68923;SDS011;55961;52.156;20.942;2023-05-17T01:15:21;17.10;;;12.10;;
68923;SDS011;55961;52.156;20.942;2023-05-17T01:20:43;16.10;;;12.27;;
68923;SDS011;55961;52.156;20.942;2023-05-17T01:26:16;17.10;;;12.38;;
68923;SDS011;55961;52.156;20.942;2023-05-17T01:28:47;16.08;;;12.18;;
68923;SDS011;55961;52.156;20.942;2023-05-17T01:31:17;16.67;;;12.00;;
68923;SDS011;55961;52.156;20.942;2023-05-17T01:33:44;16.73;;;12.68;;
68923;SDS011;55961;52.156;20.942;2023-05-17T01:36:10;16.42;;;12.55;;
68923;SDS011;55961;52.156;20.942;2023-05-17T01:38:36;19.70;;;13.10;;
68923;SDS011;55961;52.156;20.942;2023-05-17T01:46:40;20.15;;;15.55;;
68923;SDS011;55961;52.156;20.942;2023-05-17T01:54:53;21.33;;;14.10;;
68923;SDS011;55961;52.156;20.942;2023-05-17T01:57:24;20.88;;;15.40;;
68923;SDS011;55961;52.156;20.942;2023-05-17T01:59:56;19.23;;;13.00;;
68923;SDS011;55961;52.156;20.942;2023-05-17T02:02:26;16.05;;;11.90;;
68923;SDS011;55961;52.156;20.942;2023-05-17T02:04:52;18.80;;;11.40;;
68923;SDS011;55961;52.156;20.942;2023-05-17T02:07:19;16.30;;;11.18;;
68923;SDS011;55961;52.156;20.942;2023-05-17T02:09:45;16.15;;;11.88;;
68923;SDS011;55961;52.156;20.942;2023-05-17T02:12:10;17.10;;;12.07;;
68923;SDS011;55961;52.156;20.942;2023-05-17T02:14:36;15.73;;;11.07;;
68923;SDS011;55961;52.156;20.942;2023-05-17T02:17:02;17.25;;;11.98;;
68923;SDS011;55961;52.156;20.942;2023-05-17T02:19:30;16.13;;;10.85;;
68923;SDS011;55961;52.156;20.942;2023-05-17T02:21:56;17.02;;;11.60;;
68923;SDS011;55961;52.156;20.942;2023-05-17T02:24:22;15.87;;;10.77;;
68923;SDS011;55961;52.156;20.942;2023-05-17T02:26:51;15.32;;;10.35;;
68923;SDS011;55961;52.156;20.942;2023-05-17T02:29:17;16.85;;;11.38;;
68923;SDS011;55961;52.156;20.942;2023-05-17T02:31:43;17.53;;;11.13;;
68923;SDS011;55961;52.156;20.942;2023-05-17T02:34:10;15.87;;;11.30;;
68923;SDS011;55961;52.156;20.942;2023-05-17T02:36:36;14.55;;;10.45;;
68923;SDS011;55961;52.156;20.942;2023-05-17T02:39:02;17.70;;;11.30;;
68923;SDS011;55961;52.156;20.942;2023-05-17T02:41:28;16.50;;;11.03;;
68923;SDS011;55961;52.156;20.942;2023-05-17T02:43:54;15.52;;;10.38;;
68923;SDS011;55961;52.156;20.942;2023-05-17T02:46:19;17.73;;;11.32;;
68923;SDS011;55961;52.156;20.942;2023-05-17T02:48:46;15.48;;;10.80;;
68923;SDS011;55961;52.156;20.942;2023-05-17T02:51:12;19.60;;;12.60;;
68923;SDS011;55961;52.156;20.942;2023-05-17T02:53:38;18.83;;;12.98;;
68923;SDS011;55961;52.156;20.942;2023-05-17T02:56:03;19.50;;;12.38;;
68923;SDS011;55961;52.156;20.942;2023-05-17T02:58:30;17.92;;;12.07;;
68923;SDS011;55961;52.156;20.942;2023-05-17T03:00:56;16.10;;;10.93;;
68923;SDS011;55961;52.156;20.942;2023-05-17T03:03:22;16.00;;;11.20;;
68923;SDS011;55961;52.156;20.942;2023-05-17T03:05:48;19.10;;;11.68;;
68923;SDS011;55961;52.156;20.942;2023-05-17T03:08:14;17.40;;;11.50;;
68923;SDS011;55961;52.156;20.942;2023-05-17T03:10:39;18.77;;;12.95;;
68923;SDS011;55961;52.156;20.942;2023-05-17T03:13:05;16.77;;;11.52;;
68923;SDS011;55961;52.156;20.942;2023-05-17T03:15:31;17.27;;;11.43;;
68923;SDS011;55961;52.156;20.942;2023-05-17T03:17:57;17.25;;;10.93;;
68923;SDS011;55961;52.156;20.942;2023-05-17T03:20:23;16.52;;;10.95;;
68923;SDS011;55961;52.156;20.942;2023-05-17T03:22:50;18.67;;;12.43;;
68923;SDS011;55961;52.156;20.942;2023-05-17T03:25:16;14.13;;;10.57;;
68923;SDS011;55961;52.156;20.942;2023-05-17T03:27:42;14.27;;;9.98;;
68923;SDS011;55961;52.156;20.942;2023-05-17T03:30:08;14.98;;;10.10;;
68923;SDS011;55961;52.156;20.942;2023-05-17T03:32:34;13.90;;;9.68;;
68923;SDS011;55961;52.156;20.942;2023-05-17T03:35:03;15.13;;;9.83;;
68923;SDS011;55961;52.156;20.942;2023-05-17T03:37:30;15.65;;;10.52;;
68923;SDS011;55961;52.156;20.942;2023-05-17T03:39:55;22.90;;;13.85;;
68923;SDS011;55961;52.156;20.942;2023-05-17T03:42:21;16.70;;;11.18;;
68923;SDS011;55961;52.156;20.942;2023-05-17T03:44:47;15.63;;;9.87;;
68923;SDS011;55961;52.156;20.942;2023-05-17T03:47:13;15.23;;;9.88;;
68923;SDS011;55961;52.156;20.942;2023-05-17T03:49:40;16.67;;;10.65;;
68923;SDS011;55961;52.156;20.942;2023-05-17T03:52:07;16.25;;;10.88;;
68923;SDS011;55961;52.156;20.942;2023-05-17T03:54:33;13.50;;;9.33;;
68923;SDS011;55961;52.156;20.942;2023-05-17T03:56:59;14.73;;;9.80;;
68923;SDS011;55961;52.156;20.942;2023-05-17T03:59:25;15.18;;;9.35;;
68923;SDS011;55961;52.156;20.942;2023-05-17T04:01:51;13.97;;;9.17;;
68923;SDS011;55961;52.156;20.942;2023-05-17T04:04:17;15.15;;;9.82;;
68923;SDS011;55961;52.156;20.942;2023-05-17T04:06:43;13.15;;;9.20;;
68923;SDS011;55961;52.156;20.942;2023-05-17T04:09:09;13.60;;;9.40;;
68923;SDS011;55961;52.156;20.942;2023-05-17T04:11:37;13.15;;;9.13;;
68923;SDS011;55961;52.156;20.942;2023-05-17T04:14:04;14.38;;;10.07;;
68923;SDS011;55961;52.156;20.942;2023-05-17T04:16:30;13.98;;;9.80;;
68923;SDS011;55961;52.156;20.942;2023-05-17T04:18:58;13.63;;;10.03;;
68923;SDS011;55961;52.156;20.942;2023-05-17T04:21:25;15.07;;;9.57;;
68923;SDS011;55961;52.156;20.942;2023-05-17T04:23:51;13.82;;;8.55;;
68923;SDS011;55961;52.156;20.942;2023-05-17T04:26:18;14.05;;;9.00;;
68923;SDS011;55961;52.156;20.942;2023-05-17T04:28:44;13.48;;;8.75;;
68923;SDS011;55961;52.156;20.942;2023-05-17T04:31:12;15.10;;;8.93;;
68923;SDS011;55961;52.156;20.942;2023-05-17T04:33:39;14.77;;;9.20;;
68923;SDS011;55961;52.156;20.942;2023-05-17T04:36:05;12.82;;;8.57;;
68923;SDS011;55961;52.156;20.942;2023-05-17T04:38:31;12.10;;;8.23;;
68923;SDS011;55961;52.156;20.942;2023-05-17T04:41:01;12.70;;;8.73;;
68923;SDS011;55961;52.156;20.942;2023-05-17T04:43:28;12.60;;;8.77;;
68923;SDS011;55961;52.156;20.942;2023-05-17T04:45:56;12.85;;;8.82;;
68923;SDS011;55961;52.156;20.942;2023-05-17T04:48:22;12.98;;;8.35;;
68923;SDS011;55961;52.156;20.942;2023-05-17T04:50:50;13.23;;;8.77;;
68923;SDS011;55961;52.156;20.942;2023-05-17T04:53:16;12.60;;;8.23;;
68923;SDS011;55961;52.156;20.942;2023-05-17T04:55:43;12.17;;;8.10;;
68923;SDS011;55961;52.156;20.942;2023-05-17T04:58:09;10.48;;;7.32;;
68923;SDS011;55961;52.156;20.942;2023-05-17T05:00:35;11.15;;;7.50;;
68923;SDS011;55961;52.156;20.942;2023-05-17T05:03:00;12.23;;;8.07;;
68923;SDS011;55961;52.156;20.942;2023-05-17T05:05:29;13.77;;;7.70;;
68923;SDS011;55961;52.156;20.942;2023-05-17T05:07:58;10.93;;;7.80;;
68923;SDS011;55961;52.156;20.942;2023-05-17T05:10:24;12.25;;;8.48;;
68923;SDS011;55961;52.156;20.942;2023-05-17T05:12:52;12.77;;;9.10;;
68923;SDS011;55961;52.156;20.942;2023-05-17T05:15:19;12.40;;;8.63;;
68923;SDS011;55961;52.156;20.942;2023-05-17T05:17:44;14.33;;;10.13;;
68923;SDS011;55961;52.156;20.942;2023-05-17T05:20:12;14.77;;;9.88;;
68923;SDS011;55961;52.156;20.942;2023-05-17T05:22:38;13.95;;;9.27;;
68923;SDS011;55961;52.156;20.942;2023-05-17T05:25:04;12.50;;;8.50;;
68923;SDS011;55961;52.156;20.942;2023-05-17T05:27:30;15.75;;;10.02;;
68923;SDS011;55961;52.156;20.942;2023-05-17T05:29:56;16.83;;;11.70;;
68923;SDS011;55961;52.156;20.942;2023-05-17T05:32:22;15.43;;;9.80;;
68923;SDS011;55961;52.156;20.942;2023-05-17T05:34:48;12.60;;;8.80;;
68923;SDS011;55961;52.156;20.942;2023-05-17T05:37:14;12.90;;;8.63;;
68923;SDS011;55961;52.156;20.942;2023-05-17T05:39:40;10.90;;;7.45;;
68923;SDS011;55961;52.156;20.942;2023-05-17T05:42:06;10.20;;;7.80;;
68923;SDS011;55961;52.156;20.942;2023-05-17T05:44:32;9.97;;;7.00;;
68923;SDS011;55961;52.156;20.942;2023-05-17T05:46:58;11.70;;;6.93;;
68923;SDS011;55961;52.156;20.942;2023-05-17T05:49:24;11.82;;;7.78;;
68923;SDS011;55961;52.156;20.942;2023-05-17T05:51:50;10.97;;;8.00;;
68923;SDS011;55961;52.156;20.942;2023-05-17T05:54:16;11.00;;;8.30;;
68923;SDS011;55961;52.156;20.942;2023-05-17T05:56:41;12.48;;;8.60;;
68923;SDS011;55961;52.156;20.942;2023-05-17T05:59:07;11.27;;;7.75;;
68923;SDS011;55961;52.156;20.942;2023-05-17T06:01:33;11.07;;;7.63;;
68923;SDS011;55961;52.156;20.942;2023-05-17T06:04:00;12.60;;;8.07;;
68923;SDS011;55961;52.156;20.942;2023-05-17T06:06:25;11.07;;;7.60;;
68923;SDS011;55961;52.156;20.942;2023-05-17T06:08:51;11.13;;;8.27;;
68923;SDS011;55961;52.156;20.942;2023-05-17T06:11:17;11.88;;;7.22;;
68923;SDS011;55961;52.156;20.942;2023-05-17T06:13:45;9.05;;;6.40;;
68923;SDS011;55961;52.156;20.942;2023-05-17T06:16:11;9.98;;;6.32;;
68923;SDS011;55961;52.156;20.942;2023-05-17T06:18:37;11.33;;;7.10;;
68923;SDS011;55961;52.156;20.942;2023-05-17T06:21:03;10.93;;;6.97;;
68923;SDS011;55961;52.156;20.942;2023-05-17T06:23:29;10.50;;;6.80;;
68923;SDS011;55961;52.156;20.942;2023-05-17T06:25:55;12.73;;;7.57;;
68923;SDS011;55961;52.156;20.942;2023-05-17T06:28:21;11.13;;;7.63;;
68923;SDS011;55961;52.156;20.942;2023-05-17T06:30:47;12.95;;;9.45;;
68923;SDS011;55961;52.156;20.942;2023-05-17T06:33:13;13.77;;;8.98;;
68923;SDS011;55961;52.156;20.942;2023-05-17T06:35:38;11.70;;;8.50;;
68923;SDS011;55961;52.156;20.942;2023-05-17T06:38:04;11.18;;;7.25;;
68923;SDS011;55961;52.156;20.942;2023-05-17T06:40:30;9.32;;;6.93;;
68923;SDS011;55961;52.156;20.942;2023-05-17T06:42:56;10.75;;;7.47;;
68923;SDS011;55961;52.156;20.942;2023-05-17T06:45:22;9.33;;;5.90;;
68923;SDS011;55961;52.156;20.942;2023-05-17T06:47:48;7.97;;;5.40;;
68923;SDS011;55961;52.156;20.942;2023-05-17T06:50:14;9.32;;;5.38;;
68923;SDS011;55961;52.156;20.942;2023-05-17T06:52:40;9.10;;;6.18;;
68923;SDS011;55961;52.156;20.942;2023-05-17T06:55:06;9.10;;;5.73;;
68923;SDS011;55961;52.156;20.942;2023-05-17T06:57:33;10.13;;;5.82;;
68923;SDS011;55961;52.156;20.942;2023-05-17T07:00:00;11.57;;;6.93;;
68923;SDS011;55961;52.156;20.942;2023-05-17T07:02:26;10.75;;;6.38;;
68923;SDS011;55961;52.156;20.942;2023-05-17T07:04:52;10.33;;;5.63;;
68923;SDS011;55961;52.156;20.942;2023-05-17T07:07:17;8.77;;;6.13;;
68923;SDS011;55961;52.156;20.942;2023-05-17T07:09:43;9.20;;;6.03;;
68923;SDS011;55961;52.156;20.942;2023-05-17T07:12:09;9.82;;;6.57;;
68923;SDS011;55961;52.156;20.942;2023-05-17T07:14:35;9.85;;;6.60;;
68923;SDS011;55961;52.156;20.942;2023-05-17T07:17:01;10.53;;;6.53;;
68923;SDS011;55961;52.156;20.942;2023-05-17T07:19:27;10.00;;;6.47;;
68923;SDS011;55961;52.156;20.942;2023-05-17T07:21:53;11.07;;;6.85;;
68923;SDS011;55961;52.156;20.942;2023-05-17T07:24:19;10.57;;;6.63;;
68923;SDS011;55961;52.156;20.942;2023-05-17T07:26:45;10.20;;;6.60;;
68923;SDS011;55961;52.156;20.942;2023-05-17T07:29:11;9.68;;;6.45;;
68923;SDS011;55961;52.156;20.942;2023-05-17T07:31:37;10.63;;;5.97;;
68923;SDS011;55961;52.156;20.942;2023-05-17T07:34:03;11.27;;;6.37;;
68923;SDS011;55961;52.156;20.942;2023-05-17T07:36:29;9.05;;;5.95;;
68923;SDS011;55961;52.156;20.942;2023-05-17T07:38:55;8.48;;;5.72;;
68923;SDS011;55961;52.156;20.942;2023-05-17T07:41:22;8.35;;;5.85;;
68923;SDS011;55961;52.156;20.942;2023-05-17T07:43:48;7.78;;;5.57;;
68923;SDS011;55961;52.156;20.942;2023-05-17T07:46:14;9.90;;;5.60;;
68923;SDS011;55961;52.156;20.942;2023-05-17T07:48:42;9.07;;;5.50;;
68923;SDS011;55961;52.156;20.942;2023-05-17T07:51:08;10.18;;;6.60;;
68923;SDS011;55961;52.156;20.942;2023-05-17T07:53:34;10.77;;;5.82;;
68923;SDS011;55961;52.156;20.942;2023-05-17T07:56:00;8.57;;;5.50;;
68923;SDS011;55961;52.156;20.942;2023-05-17T07:58:26;7.80;;;4.85;;
68923;SDS011;55961;52.156;20.942;2023-05-17T08:00:52;8.63;;;5.90;;
68923;SDS011;55961;52.156;20.942;2023-05-17T08:03:18;8.47;;;5.70;;
68923;SDS011;55961;52.156;20.942;2023-05-17T08:05:43;7.95;;;5.47;;
68923;SDS011;55961;52.156;20.942;2023-05-17T08:08:10;10.60;;;5.45;;
68923;SDS011;55961;52.156;20.942;2023-05-17T08:10:36;9.47;;;5.83;;
68923;SDS011;55961;52.156;20.942;2023-05-17T08:13:02;8.93;;;5.60;;
68923;SDS011;55961;52.156;20.942;2023-05-17T08:15:30;9.30;;;5.35;;
68923;SDS011;55961;52.156;20.942;2023-05-17T08:17:56;8.65;;;5.53;;
68923;SDS011;55961;52.156;20.942;2023-05-17T08:20:22;7.60;;;5.30;;
68923;SDS011;55961;52.156;20.942;2023-05-17T08:22:48;9.57;;;6.00;;
68923;SDS011;55961;52.156;20.942;2023-05-17T08:25:14;10.02;;;5.28;;
68923;SDS011;55961;52.156;20.942;2023-05-17T08:27:40;8.75;;;5.68;;
68923;SDS011;55961;52.156;20.942;2023-05-17T08:30:06;7.77;;;5.60;;
68923;SDS011;55961;52.156;20.942;2023-05-17T08:32:32;8.38;;;5.05;;
68923;SDS011;55961;52.156;20.942;2023-05-17T08:34:58;8.77;;;5.25;;
68923;SDS011;55961;52.156;20.942;2023-05-17T08:37:24;7.70;;;5.43;;
68923;SDS011;55961;52.156;20.942;2023-05-17T08:39:50;7.97;;;5.07;;
68923;SDS011;55961;52.156;20.942;2023-05-17T08:42:18;8.90;;;4.10;;
68923;SDS011;55961;52.156;20.942;2023-05-17T08:44:48;7.65;;;4.80;;
68923;SDS011;55961;52.156;20.942;2023-05-17T08:47:14;7.40;;;5.00;;
68923;SDS011;55961;52.156;20.942;2023-05-17T08:49:53;8.75;;;4.65;;
68923;SDS011;55961;52.156;20.942;2023-05-17T08:52:22;7.05;;;4.55;;
68923;SDS011;55961;52.156;20.942;2023-05-17T08:54:47;7.97;;;4.70;;
68923;SDS011;55961;52.156;20.942;2023-05-17T08:57:14;6.40;;;3.78;;
68923;SDS011;55961;52.156;20.942;2023-05-17T08:59:42;7.27;;;4.53;;
68923;SDS011;55961;52.156;20.942;2023-05-17T09:02:10;7.57;;;4.50;;
68923;SDS011;55961;52.156;20.942;2023-05-17T09:04:38;6.43;;;4.05;;
68923;SDS011;55961;52.156;20.942;2023-05-17T09:07:05;8.77;;;4.18;;
68923;SDS011;55961;52.156;20.942;2023-05-17T09:09:31;9.98;;;4.50;;
68923;SDS011;55961;52.156;20.942;2023-05-17T09:11:58;8.50;;;4.30;;
68923;SDS011;55961;52.156;20.942;2023-05-17T09:14:24;6.47;;;4.07;;
68923;SDS011;55961;52.156;20.942;2023-05-17T09:16:59;7.90;;;4.82;;
68923;SDS011;55961;52.156;20.942;2023-05-17T09:19:25;7.68;;;4.72;;
68923;SDS011;55961;52.156;20.942;2023-05-17T09:21:52;9.38;;;4.80;;
68923;SDS011;55961;52.156;20.942;2023-05-17T09:24:26;7.03;;;4.77;;
68923;SDS011;55961;52.156;20.942;2023-05-17T09:27:04;7.03;;;4.50;;
68923;SDS011;55961;52.156;20.942;2023-05-17T09:29:30;7.45;;;5.05;;
68923;SDS011;55961;52.156;20.942;2023-05-17T09:32:10;8.65;;;5.60;;
68923;SDS011;55961;52.156;20.942;2023-05-17T09:34:45;8.93;;;5.20;;
68923;SDS011;55961;52.156;20.942;2023-05-17T09:37:17;8.93;;;5.83;;
68923;SDS011;55961;52.156;20.942;2023-05-17T09:39:44;9.18;;;5.70;;
68923;SDS011;55961;52.156;20.942;2023-05-17T09:42:12;7.57;;;4.78;;
68923;SDS011;55961;52.156;20.942;2023-05-17T09:47:24;8.48;;;5.28;;
68923;SDS011;55961;52.156;20.942;2023-05-17T09:49:52;11.83;;;6.30;;
68923;SDS011;55961;52.156;20.942;2023-05-17T09:52:25;9.77;;;6.97;;
68923;SDS011;55961;52.156;20.942;2023-05-17T09:54:57;11.07;;;7.45;;
68923;SDS011;55961;52.156;20.942;2023-05-17T09:57:27;13.77;;;7.72;;
68923;SDS011;55961;52.156;20.942;2023-05-17T10:00:02;12.32;;;7.55;;
68923;SDS011;55961;52.156;20.942;2023-05-17T10:02:32;11.90;;;7.67;;
68923;SDS011;55961;52.156;20.942;2023-05-17T10:05:02;13.85;;;7.70;;
68923;SDS011;55961;52.156;20.942;2023-05-17T10:07:30;11.15;;;7.78;;
68923;SDS011;55961;52.156;20.942;2023-05-17T10:09:56;12.50;;;7.97;;
68923;SDS011;55961;52.156;20.942;2023-05-17T10:12:24;12.15;;;7.63;;
68923;SDS011;55961;52.156;20.942;2023-05-17T10:14:54;11.37;;;7.67;;
68923;SDS011;55961;52.156;20.942;2023-05-17T10:17:20;11.73;;;7.93;;
68923;SDS011;55961;52.156;20.942;2023-05-17T10:19:47;11.27;;;7.72;;
68923;SDS011;55961;52.156;20.942;2023-05-17T10:22:14;12.75;;;7.68;;
68923;SDS011;55961;52.156;20.942;2023-05-17T10:24:42;11.88;;;7.07;;
68923;SDS011;55961;52.156;20.942;2023-05-17T10:27:10;11.97;;;7.43;;
68923;SDS011;55961;52.156;20.942;2023-05-17T10:29:38;10.93;;;7.00;;
68923;SDS011;55961;52.156;20.942;2023-05-17T10:32:07;13.02;;;7.38;;
68923;SDS011;55961;52.156;20.942;2023-05-17T10:34:34;11.82;;;7.10;;
68923;SDS011;55961;52.156;20.942;2023-05-17T10:37:03;15.75;;;7.85;;
68923;SDS011;55961;52.156;20.942;2023-05-17T10:39:32;11.50;;;7.57;;
68923;SDS011;55961;52.156;20.942;2023-05-17T10:42:03;17.90;;;7.70;;
68923;SDS011;55961;52.156;20.942;2023-05-17T10:44:32;17.05;;;8.13;;
68923;SDS011;55961;52.156;20.942;2023-05-17T10:46:59;12.48;;;7.78;;
68923;SDS011;55961;52.156;20.942;2023-05-17T10:49:25;13.77;;;8.10;;
68923;SDS011;55961;52.156;20.942;2023-05-17T10:51:58;13.10;;;8.00;;
68923;SDS011;55961;52.156;20.942;2023-05-17T10:54:39;15.30;;;8.52;;
68923;SDS011;55961;52.156;20.942;2023-05-17T10:57:07;14.45;;;7.75;;
68923;SDS011;55961;52.156;20.942;2023-05-17T10:59:56;14.25;;;7.43;;
68923;SDS011;55961;52.156;20.942;2023-05-17T11:02:25;12.65;;;7.88;;
68923;SDS011;55961;52.156;20.942;2023-05-17T11:04:51;15.80;;;7.83;;
68923;SDS011;55961;52.156;20.942;2023-05-17T11:09:52;13.98;;;7.10;;
68923;SDS011;55961;52.156;20.942;2023-05-17T11:12:29;11.30;;;6.00;;
68923;SDS011;55961;52.156;20.942;2023-05-17T11:15:00;15.45;;;5.95;;
68923;SDS011;55961;52.156;20.942;2023-05-17T11:17:33;14.03;;;5.93;;
68923;SDS011;55961;52.156;20.942;2023-05-17T11:22:41;12.25;;;6.10;;
68923;SDS011;55961;52.156;20.942;2023-05-17T11:25:13;10.45;;;6.55;;
68923;SDS011;55961;52.156;20.942;2023-05-17T11:27:47;14.60;;;6.43;;
68923;SDS011;55961;52.156;20.942;2023-05-17T11:32:57;15.45;;;7.25;;
68923;SDS011;55961;52.156;20.942;2023-05-17T11:35:33;12.88;;;6.57;;
68923;SDS011;55961;52.156;20.942;2023-05-17T11:38:15;13.48;;;6.68;;
68923;SDS011;55961;52.156;20.942;2023-05-17T11:40:44;11.25;;;6.20;;
68923;SDS011;55961;52.156;20.942;2023-05-17T11:43:13;7.80;;;4.60;;
68923;SDS011;55961;52.156;20.942;2023-05-17T11:45:44;11.68;;;4.85;;
68923;SDS011;55961;52.156;20.942;2023-05-17T11:48:12;10.55;;;5.13;;
68923;SDS011;55961;52.156;20.942;2023-05-17T11:50:39;11.00;;;4.88;;
68923;SDS011;55961;52.156;20.942;2023-05-17T11:53:06;10.88;;;4.38;;
68923;SDS011;55961;52.156;20.942;2023-05-17T11:55:47;11.60;;;4.70;;
68923;SDS011;55961;52.156;20.942;2023-05-17T11:58:15;12.68;;;5.10;;
68923;SDS011;55961;52.156;20.942;2023-05-17T12:00:43;8.75;;;4.63;;
68923;SDS011;55961;52.156;20.942;2023-05-17T12:03:16;13.52;;;5.45;;
68923;SDS011;55961;52.156;20.942;2023-05-17T12:05:45;13.40;;;5.40;;
68923;SDS011;55961;52.156;20.942;2023-05-17T12:08:17;11.43;;;5.50;;
68923;SDS011;55961;52.156;20.942;2023-05-17T12:10:49;14.25;;;5.65;;
68923;SDS011;55961;52.156;20.942;2023-05-17T12:13:17;11.80;;;5.60;;
68923;SDS011;55961;52.156;20.942;2023-05-17T12:15:44;11.57;;;5.03;;
68923;SDS011;55961;52.156;20.942;2023-05-17T12:18:33;15.55;;;5.60;;
68923;SDS011;55961;52.156;20.942;2023-05-17T12:21:03;11.87;;;5.43;;
68923;SDS011;55961;52.156;20.942;2023-05-17T12:23:37;14.05;;;6.20;;
68923;SDS011;55961;52.156;20.942;2023-05-17T12:26:12;12.30;;;5.70;;
68923;SDS011;55961;52.156;20.942;2023-05-17T12:28:52;11.70;;;5.82;;
68923;SDS011;55961;52.156;20.942;2023-05-17T12:31:21;15.45;;;6.40;;
68923;SDS011;55961;52.156;20.942;2023-05-17T12:33:54;11.27;;;5.90;;
68923;SDS011;55961;52.156;20.942;2023-05-17T12:36:20;11.57;;;6.03;;
68923;SDS011;55961;52.156;20.942;2023-05-17T12:38:47;11.35;;;5.70;;
68923;SDS011;55961;52.156;20.942;2023-05-17T12:41:14;13.05;;;6.20;;
68923;SDS011;55961;52.156;20.942;2023-05-17T12:43:42;12.38;;;6.22;;
68923;SDS011;55961;52.156;20.942;2023-05-17T12:46:13;10.97;;;5.53;;
68923;SDS011;55961;52.156;20.942;2023-05-17T12:48:45;11.90;;;6.10;;
68923;SDS011;55961;52.156;20.942;2023-05-17T12:51:12;14.35;;;6.45;;
68923;SDS011;55961;52.156;20.942;2023-05-17T12:53:41;11.02;;;6.22;;
68923;SDS011;55961;52.156;20.942;2023-05-17T12:56:08;13.50;;;6.28;;
68923;SDS011;55961;52.156;20.942;2023-05-17T12:58:40;12.33;;;6.67;;
68923;SDS011;55961;52.156;20.942;2023-05-17T13:01:06;15.43;;;7.90;;
68923;SDS011;55961;52.156;20.942;2023-05-17T13:03:35;15.93;;;7.88;;
68923;SDS011;55961;52.156;20.942;2023-05-17T13:06:02;15.53;;;7.13;;
68923;SDS011;55961;52.156;20.942;2023-05-17T13:08:33;18.25;;;8.55;;
68923;SDS011;55961;52.156;20.942;2023-05-17T13:11:07;17.17;;;8.30;;
68923;SDS011;55961;52.156;20.942;2023-05-17T13:13:38;16.80;;;8.80;;
68923;SDS011;55961;52.156;20.942;2023-05-17T13:16:04;13.90;;;7.43;;
68923;SDS011;55961;52.156;20.942;2023-05-17T13:18:45;11.50;;;7.07;;
68923;SDS011;55961;52.156;20.942;2023-05-17T13:21:12;16.92;;;7.45;;
68923;SDS011;55961;52.156;20.942;2023-05-17T13:23:41;14.82;;;7.22;;
68923;SDS011;55961;52.156;20.942;2023-05-17T13:26:08;12.50;;;7.43;;
68923;SDS011;55961;52.156;20.942;2023-05-17T13:28:35;13.73;;;7.25;;
68923;SDS011;55961;52.156;20.942;2023-05-17T13:31:01;15.30;;;7.87;;
68923;SDS011;55961;52.156;20.942;2023-05-17T13:33:27;13.73;;;7.88;;
68923;SDS011;55961;52.156;20.942;2023-05-17T13:35:53;11.85;;;7.55;;
68923;SDS011;55961;52.156;20.942;2023-05-17T13:38:19;11.57;;;7.85;;
68923;SDS011;55961;52.156;20.942;2023-05-17T13:40:45;17.37;;;7.90;;
68923;SDS011;55961;52.156;20.942;2023-05-17T13:43:11;14.82;;;7.60;;
68923;SDS011;55961;52.156;20.942;2023-05-17T13:45:37;14.68;;;8.30;;
68923;SDS011;55961;52.156;20.942;2023-05-17T13:48:03;18.73;;;8.53;;
68923;SDS011;55961;52.156;20.942;2023-05-17T13:50:29;12.27;;;8.05;;
68923;SDS011;55961;52.156;20.942;2023-05-17T13:52:55;18.15;;;8.02;;
68923;SDS011;55961;52.156;20.942;2023-05-17T13:55:21;13.73;;;7.93;;
68923;SDS011;55961;52.156;20.942;2023-05-17T13:57:48;14.95;;;7.50;;
68923;SDS011;55961;52.156;20.942;2023-05-17T14:00:13;15.70;;;7.95;;
68923;SDS011;55961;52.156;20.942;2023-05-17T14:02:40;14.07;;;7.68;;
68923;SDS011;55961;52.156;20.942;2023-05-17T14:05:06;15.90;;;8.47;;
68923;SDS011;55961;52.156;20.942;2023-05-17T14:07:34;14.38;;;8.75;;
68923;SDS011;55961;52.156;20.942;2023-05-17T14:10:06;13.38;;;8.80;;
68923;SDS011;55961;52.156;20.942;2023-05-17T14:12:37;17.23;;;8.10;;
68923;SDS011;55961;52.156;20.942;2023-05-17T14:15:04;15.40;;;8.38;;
68923;SDS011;55961;52.156;20.942;2023-05-17T14:17:30;13.73;;;7.47;;
68923;SDS011;55961;52.156;20.942;2023-05-17T14:19:57;13.38;;;6.78;;
68923;SDS011;55961;52.156;20.942;2023-05-17T14:22:23;12.23;;;7.50;;
68923;SDS011;55961;52.156;20.942;2023-05-17T14:24:49;12.23;;;7.70;;
68923;SDS011;55961;52.156;20.942;2023-05-17T14:27:15;13.07;;;8.00;;
68923;SDS011;55961;52.156;20.942;2023-05-17T14:29:41;13.70;;;7.43;;
68923;SDS011;55961;52.156;20.942;2023-05-17T14:32:07;15.25;;;7.90;;
68923;SDS011;55961;52.156;20.942;2023-05-17T14:34:33;19.98;;;7.45;;
68923;SDS011;55961;52.156;20.942;2023-05-17T14:36:59;15.47;;;7.60;;
68923;SDS011;55961;52.156;20.942;2023-05-17T14:39:25;16.17;;;7.38;;
68923;SDS011;55961;52.156;20.942;2023-05-17T14:41:51;11.27;;;7.72;;
68923;SDS011;55961;52.156;20.942;2023-05-17T14:44:17;13.27;;;7.30;;
68923;SDS011;55961;52.156;20.942;2023-05-17T14:46:43;15.27;;;7.07;;
68923;SDS011;55961;52.156;20.942;2023-05-17T14:49:09;14.27;;;8.13;;
68923;SDS011;55961;52.156;20.942;2023-05-17T14:51:35;14.15;;;7.63;;
68923;SDS011;55961;52.156;20.942;2023-05-17T14:54:01;12.80;;;7.50;;